sensor_id;sensor_type;location;lat;lon;timestamp;P1;durP1;ratioP1;P2;durP2;ratioP2
68763;SDS011;55754;52.038;5.566;2022-12-18T00:03:45;39.70;;;15.43;;
68763;SDS011;55754;52.038;5.566;2022-12-18T00:06:11;42.28;;;16.33;;
68763;SDS011;55754;52.038;5.566;2022-12-18T00:08:38;39.67;;;16.40;;
68763;SDS011;55754;52.038;5.566;2022-12-18T00:11:08;41.35;;;16.58;;
68763;SDS011;55754;52.038;5.566;2022-12-18T00:13:42;36.67;;;14.30;;
68763;SDS011;55754;52.038;5.566;2022-12-18T00:16:09;43.40;;;16.67;;
68763;SDS011;55754;52.038;5.566;2022-12-18T00:18:36;41.53;;;15.45;;
68763;SDS011;55754;52.038;5.566;2022-12-18T00:21:06;41.80;;;15.23;;
68763;SDS011;55754;52.038;5.566;2022-12-18T00:23:34;37.50;;;15.15;;
68763;SDS011;55754;52.038;5.566;2022-12-18T00:26:01;40.70;;;15.80;;
68763;SDS011;55754;52.038;5.566;2022-12-18T00:28:27;46.60;;;17.37;;
68763;SDS011;55754;52.038;5.566;2022-12-18T00:31:15;42.17;;;17.17;;
68763;SDS011;55754;52.038;5.566;2022-12-18T00:33:42;41.38;;;15.75;;
68763;SDS011;55754;52.038;5.566;2022-12-18T00:36:13;43.83;;;16.08;;
68763;SDS011;55754;52.038;5.566;2022-12-18T00:38:40;39.00;;;14.73;;
68763;SDS011;55754;52.038;5.566;2022-12-18T00:41:07;44.33;;;16.17;;
68763;SDS011;55754;52.038;5.566;2022-12-18T00:43:33;43.65;;;17.65;;
68763;SDS011;55754;52.038;5.566;2022-12-18T00:45:59;44.17;;;16.58;;
68763;SDS011;55754;52.038;5.566;2022-12-18T00:48:25;40.07;;;15.50;;
68763;SDS011;55754;52.038;5.566;2022-12-18T00:50:50;39.90;;;16.25;;
68763;SDS011;55754;52.038;5.566;2022-12-18T00:53:16;43.40;;;16.20;;
68763;SDS011;55754;52.038;5.566;2022-12-18T00:55:42;47.25;;;17.42;;
68763;SDS011;55754;52.038;5.566;2022-12-18T00:58:08;44.10;;;16.83;;
68763;SDS011;55754;52.038;5.566;2022-12-18T01:00:35;42.53;;;16.45;;
68763;SDS011;55754;52.038;5.566;2022-12-18T01:03:04;40.77;;;16.50;;
68763;SDS011;55754;52.038;5.566;2022-12-18T01:05:30;40.17;;;15.75;;
68763;SDS011;55754;52.038;5.566;2022-12-18T01:07:56;46.63;;;16.52;;
68763;SDS011;55754;52.038;5.566;2022-12-18T01:10:22;41.92;;;15.90;;
68763;SDS011;55754;52.038;5.566;2022-12-18T01:12:48;40.83;;;16.17;;
68763;SDS011;55754;52.038;5.566;2022-12-18T01:15:14;40.72;;;15.43;;
68763;SDS011;55754;52.038;5.566;2022-12-18T01:17:41;43.92;;;16.70;;
68763;SDS011;55754;52.038;5.566;2022-12-18T01:20:07;38.60;;;15.07;;
68763;SDS011;55754;52.038;5.566;2022-12-18T01:22:34;38.87;;;15.73;;
68763;SDS011;55754;52.038;5.566;2022-12-18T01:25:00;38.70;;;15.55;;
68763;SDS011;55754;52.038;5.566;2022-12-18T01:27:25;41.33;;;16.25;;
68763;SDS011;55754;52.038;5.566;2022-12-18T01:29:51;39.57;;;14.77;;
68763;SDS011;55754;52.038;5.566;2022-12-18T01:32:16;35.47;;;14.57;;
68763;SDS011;55754;52.038;5.566;2022-12-18T01:34:42;40.22;;;15.43;;
68763;SDS011;55754;52.038;5.566;2022-12-18T01:37:08;38.40;;;15.70;;
68763;SDS011;55754;52.038;5.566;2022-12-18T01:39:33;35.47;;;14.60;;
68763;SDS011;55754;52.038;5.566;2022-12-18T01:41:59;35.30;;;14.70;;
68763;SDS011;55754;52.038;5.566;2022-12-18T01:44:47;37.28;;;14.73;;
68763;SDS011;55754;52.038;5.566;2022-12-18T01:49:56;35.45;;;13.80;;
68763;SDS011;55754;52.038;5.566;2022-12-18T01:52:24;36.42;;;14.68;;
68763;SDS011;55754;52.038;5.566;2022-12-18T01:54:53;36.63;;;15.20;;
68763;SDS011;55754;52.038;5.566;2022-12-18T01:57:20;38.00;;;15.30;;
68763;SDS011;55754;52.038;5.566;2022-12-18T01:59:46;39.43;;;14.37;;
68763;SDS011;55754;52.038;5.566;2022-12-18T02:02:15;34.60;;;15.48;;
68763;SDS011;55754;52.038;5.566;2022-12-18T02:04:44;37.83;;;14.32;;
68763;SDS011;55754;52.038;5.566;2022-12-18T02:07:24;33.67;;;14.90;;
68763;SDS011;55754;52.038;5.566;2022-12-18T02:10:24;38.78;;;15.68;;
68763;SDS011;55754;52.038;5.566;2022-12-18T02:18:33;39.70;;;15.32;;
68763;SDS011;55754;52.038;5.566;2022-12-18T02:26:41;35.07;;;14.23;;
68763;SDS011;55754;52.038;5.566;2022-12-18T02:29:54;32.40;;;14.27;;
68763;SDS011;55754;52.038;5.566;2022-12-18T02:32:22;33.80;;;14.60;;
68763;SDS011;55754;52.038;5.566;2022-12-18T02:34:59;33.60;;;14.73;;
68763;SDS011;55754;52.038;5.566;2022-12-18T02:37:27;34.45;;;15.02;;
68763;SDS011;55754;52.038;5.566;2022-12-18T02:39:55;34.50;;;14.02;;
68763;SDS011;55754;52.038;5.566;2022-12-18T02:42:23;34.15;;;14.70;;
68763;SDS011;55754;52.038;5.566;2022-12-18T02:44:50;36.40;;;13.90;;
68763;SDS011;55754;52.038;5.566;2022-12-18T02:47:17;35.43;;;14.17;;
68763;SDS011;55754;52.038;5.566;2022-12-18T02:52:47;29.55;;;13.85;;
68763;SDS011;55754;52.038;5.566;2022-12-18T02:58:14;34.20;;;14.13;;
68763;SDS011;55754;52.038;5.566;2022-12-18T03:00:53;33.90;;;13.60;;
68763;SDS011;55754;52.038;5.566;2022-12-18T03:06:00;33.75;;;14.82;;
68763;SDS011;55754;52.038;5.566;2022-12-18T03:08:33;29.38;;;12.88;;
68763;SDS011;55754;52.038;5.566;2022-12-18T03:11:04;29.40;;;13.00;;
68763;SDS011;55754;52.038;5.566;2022-12-18T03:13:34;31.27;;;13.83;;
68763;SDS011;55754;52.038;5.566;2022-12-18T03:16:04;30.45;;;12.80;;
68763;SDS011;55754;52.038;5.566;2022-12-18T03:20:58;30.47;;;13.40;;
68763;SDS011;55754;52.038;5.566;2022-12-18T03:23:28;29.27;;;13.25;;
68763;SDS011;55754;52.038;5.566;2022-12-18T03:25:57;32.72;;;13.23;;
68763;SDS011;55754;52.038;5.566;2022-12-18T03:28:26;30.38;;;13.40;;
68763;SDS011;55754;52.038;5.566;2022-12-18T03:30:56;29.33;;;13.18;;
68763;SDS011;55754;52.038;5.566;2022-12-18T03:33:30;29.47;;;12.80;;
68763;SDS011;55754;52.038;5.566;2022-12-18T03:36:02;30.70;;;13.55;;
68763;SDS011;55754;52.038;5.566;2022-12-18T03:38:28;33.67;;;14.02;;
68763;SDS011;55754;52.038;5.566;2022-12-18T03:40:57;24.77;;;11.50;;
68763;SDS011;55754;52.038;5.566;2022-12-18T03:43:51;29.33;;;12.32;;
68763;SDS011;55754;52.038;5.566;2022-12-18T03:48:52;26.30;;;12.50;;
68763;SDS011;55754;52.038;5.566;2022-12-18T03:51:25;29.17;;;12.50;;
68763;SDS011;55754;52.038;5.566;2022-12-18T03:56:27;24.87;;;11.37;;
68763;SDS011;55754;52.038;5.566;2022-12-18T03:59:01;26.05;;;11.30;;
68763;SDS011;55754;52.038;5.566;2022-12-18T04:01:31;30.05;;;12.07;;
68763;SDS011;55754;52.038;5.566;2022-12-18T04:04:00;27.77;;;11.93;;
68763;SDS011;55754;52.038;5.566;2022-12-18T04:06:27;29.33;;;12.80;;
68763;SDS011;55754;52.038;5.566;2022-12-18T04:08:54;28.80;;;11.80;;
68763;SDS011;55754;52.038;5.566;2022-12-18T04:11:21;29.20;;;11.77;;
68763;SDS011;55754;52.038;5.566;2022-12-18T04:13:46;30.65;;;12.93;;
68763;SDS011;55754;52.038;5.566;2022-12-18T04:16:15;28.00;;;13.27;;
68763;SDS011;55754;52.038;5.566;2022-12-18T04:18:40;27.45;;;11.98;;
68763;SDS011;55754;52.038;5.566;2022-12-18T04:21:06;26.27;;;11.17;;
68763;SDS011;55754;52.038;5.566;2022-12-18T04:23:31;29.50;;;12.63;;
68763;SDS011;55754;52.038;5.566;2022-12-18T04:25:57;30.02;;;13.00;;
68763;SDS011;55754;52.038;5.566;2022-12-18T04:28:23;28.00;;;12.38;;
68763;SDS011;55754;52.038;5.566;2022-12-18T04:30:48;25.70;;;11.37;;
68763;SDS011;55754;52.038;5.566;2022-12-18T04:33:17;27.23;;;12.00;;
68763;SDS011;55754;52.038;5.566;2022-12-18T04:35:42;26.25;;;11.80;;
68763;SDS011;55754;52.038;5.566;2022-12-18T04:38:08;25.03;;;12.07;;
68763;SDS011;55754;52.038;5.566;2022-12-18T04:40:35;27.35;;;11.57;;
68763;SDS011;55754;52.038;5.566;2022-12-18T04:43:01;27.08;;;11.93;;
68763;SDS011;55754;52.038;5.566;2022-12-18T04:45:27;22.37;;;10.33;;
68763;SDS011;55754;52.038;5.566;2022-12-18T04:47:53;25.55;;;11.10;;
68763;SDS011;55754;52.038;5.566;2022-12-18T04:50:18;25.90;;;11.03;;
68763;SDS011;55754;52.038;5.566;2022-12-18T04:52:47;26.02;;;11.30;;
68763;SDS011;55754;52.038;5.566;2022-12-18T04:55:12;23.90;;;10.80;;
68763;SDS011;55754;52.038;5.566;2022-12-18T04:57:38;26.40;;;10.38;;
68763;SDS011;55754;52.038;5.566;2022-12-18T05:00:03;23.85;;;10.77;;
68763;SDS011;55754;52.038;5.566;2022-12-18T05:02:30;24.85;;;10.93;;
68763;SDS011;55754;52.038;5.566;2022-12-18T05:04:56;23.10;;;10.53;;
68763;SDS011;55754;52.038;5.566;2022-12-18T05:07:22;22.00;;;10.48;;
68763;SDS011;55754;52.038;5.566;2022-12-18T05:09:47;20.52;;;10.18;;
68763;SDS011;55754;52.038;5.566;2022-12-18T05:12:13;23.83;;;10.90;;
68763;SDS011;55754;52.038;5.566;2022-12-18T05:14:38;22.97;;;10.90;;
68763;SDS011;55754;52.038;5.566;2022-12-18T05:17:04;23.38;;;11.45;;
68763;SDS011;55754;52.038;5.566;2022-12-18T05:19:29;23.67;;;10.40;;
68763;SDS011;55754;52.038;5.566;2022-12-18T05:21:56;23.90;;;10.33;;
68763;SDS011;55754;52.038;5.566;2022-12-18T05:24:22;22.80;;;10.43;;
68763;SDS011;55754;52.038;5.566;2022-12-18T05:26:48;23.75;;;10.52;;
68763;SDS011;55754;52.038;5.566;2022-12-18T05:29:13;23.97;;;10.07;;
68763;SDS011;55754;52.038;5.566;2022-12-18T05:31:39;23.17;;;10.38;;
68763;SDS011;55754;52.038;5.566;2022-12-18T05:34:05;22.17;;;10.60;;
68763;SDS011;55754;52.038;5.566;2022-12-18T05:36:30;22.33;;;10.20;;
68763;SDS011;55754;52.038;5.566;2022-12-18T05:38:56;26.42;;;10.20;;
68763;SDS011;55754;52.038;5.566;2022-12-18T05:41:21;22.40;;;9.43;;
68763;SDS011;55754;52.038;5.566;2022-12-18T05:43:47;25.33;;;10.65;;
68763;SDS011;55754;52.038;5.566;2022-12-18T05:46:14;22.70;;;9.98;;
68763;SDS011;55754;52.038;5.566;2022-12-18T05:48:41;20.55;;;9.88;;
68763;SDS011;55754;52.038;5.566;2022-12-18T05:51:08;21.63;;;10.10;;
68763;SDS011;55754;52.038;5.566;2022-12-18T05:53:36;24.33;;;10.48;;
68763;SDS011;55754;52.038;5.566;2022-12-18T05:56:03;23.08;;;9.85;;
68763;SDS011;55754;52.038;5.566;2022-12-18T05:58:33;21.90;;;10.10;;
68763;SDS011;55754;52.038;5.566;2022-12-18T06:01:05;22.13;;;10.23;;
68763;SDS011;55754;52.038;5.566;2022-12-18T06:03:33;24.03;;;11.03;;
68763;SDS011;55754;52.038;5.566;2022-12-18T06:05:59;21.90;;;10.10;;
68763;SDS011;55754;52.038;5.566;2022-12-18T06:08:24;24.27;;;10.03;;
68763;SDS011;55754;52.038;5.566;2022-12-18T06:10:50;23.90;;;10.10;;
68763;SDS011;55754;52.038;5.566;2022-12-18T06:13:20;24.23;;;9.77;;
68763;SDS011;55754;52.038;5.566;2022-12-18T06:15:46;24.15;;;9.77;;
68763;SDS011;55754;52.038;5.566;2022-12-18T06:18:14;22.60;;;9.57;;
68763;SDS011;55754;52.038;5.566;2022-12-18T06:20:39;20.67;;;8.87;;
68763;SDS011;55754;52.038;5.566;2022-12-18T06:23:06;23.10;;;9.80;;
68763;SDS011;55754;52.038;5.566;2022-12-18T06:25:32;21.73;;;9.55;;
68763;SDS011;55754;52.038;5.566;2022-12-18T06:27:58;23.13;;;8.93;;
68763;SDS011;55754;52.038;5.566;2022-12-18T06:30:27;19.33;;;9.73;;
68763;SDS011;55754;52.038;5.566;2022-12-18T06:32:52;23.45;;;9.75;;
68763;SDS011;55754;52.038;5.566;2022-12-18T06:35:18;21.97;;;8.70;;
68763;SDS011;55754;52.038;5.566;2022-12-18T06:38:04;20.10;;;9.07;;
68763;SDS011;55754;52.038;5.566;2022-12-18T06:40:29;20.58;;;9.40;;
68763;SDS011;55754;52.038;5.566;2022-12-18T06:42:58;20.75;;;9.52;;
68763;SDS011;55754;52.038;5.566;2022-12-18T06:45:23;23.47;;;9.73;;
68763;SDS011;55754;52.038;5.566;2022-12-18T06:47:49;20.38;;;8.90;;
68763;SDS011;55754;52.038;5.566;2022-12-18T06:50:15;19.00;;;8.35;;
68763;SDS011;55754;52.038;5.566;2022-12-18T06:52:41;18.90;;;9.17;;
68763;SDS011;55754;52.038;5.566;2022-12-18T06:55:08;19.58;;;8.70;;
68763;SDS011;55754;52.038;5.566;2022-12-18T06:57:35;21.15;;;9.88;;
68763;SDS011;55754;52.038;5.566;2022-12-18T07:00:04;20.97;;;8.83;;
68763;SDS011;55754;52.038;5.566;2022-12-18T07:02:33;20.67;;;8.82;;
68763;SDS011;55754;52.038;5.566;2022-12-18T07:04:59;23.63;;;9.55;;
68763;SDS011;55754;52.038;5.566;2022-12-18T07:07:25;19.40;;;8.50;;
68763;SDS011;55754;52.038;5.566;2022-12-18T07:09:51;21.73;;;10.13;;
68763;SDS011;55754;52.038;5.566;2022-12-18T07:12:20;18.88;;;9.02;;
68763;SDS011;55754;52.038;5.566;2022-12-18T07:14:45;19.55;;;9.70;;
68763;SDS011;55754;52.038;5.566;2022-12-18T07:17:11;17.73;;;8.93;;
68763;SDS011;55754;52.038;5.566;2022-12-18T07:19:36;19.00;;;8.97;;
68763;SDS011;55754;52.038;5.566;2022-12-18T07:22:02;19.80;;;9.27;;
68763;SDS011;55754;52.038;5.566;2022-12-18T07:24:27;21.47;;;8.63;;
68763;SDS011;55754;52.038;5.566;2022-12-18T07:26:53;23.60;;;9.10;;
68763;SDS011;55754;52.038;5.566;2022-12-18T07:29:18;22.75;;;9.80;;
68763;SDS011;55754;52.038;5.566;2022-12-18T07:31:44;19.83;;;9.23;;
68763;SDS011;55754;52.038;5.566;2022-12-18T07:34:13;23.45;;;9.30;;
68763;SDS011;55754;52.038;5.566;2022-12-18T07:36:42;24.37;;;9.80;;
68763;SDS011;55754;52.038;5.566;2022-12-18T07:39:07;20.55;;;9.10;;
68763;SDS011;55754;52.038;5.566;2022-12-18T07:41:33;22.40;;;9.63;;
68763;SDS011;55754;52.038;5.566;2022-12-18T07:43:59;22.55;;;10.00;;
68763;SDS011;55754;52.038;5.566;2022-12-18T07:46:24;22.10;;;9.13;;
68763;SDS011;55754;52.038;5.566;2022-12-18T07:48:50;19.10;;;9.07;;
68763;SDS011;55754;52.038;5.566;2022-12-18T07:51:16;20.95;;;9.55;;
68763;SDS011;55754;52.038;5.566;2022-12-18T07:53:42;21.47;;;9.57;;
68763;SDS011;55754;52.038;5.566;2022-12-18T07:56:09;20.88;;;9.75;;
68763;SDS011;55754;52.038;5.566;2022-12-18T07:58:38;20.08;;;8.98;;
68763;SDS011;55754;52.038;5.566;2022-12-18T08:01:07;21.67;;;10.20;;
68763;SDS011;55754;52.038;5.566;2022-12-18T08:03:35;19.10;;;9.18;;
68763;SDS011;55754;52.038;5.566;2022-12-18T08:06:03;21.02;;;9.80;;
68763;SDS011;55754;52.038;5.566;2022-12-18T08:08:31;21.90;;;9.90;;
68763;SDS011;55754;52.038;5.566;2022-12-18T08:10:58;20.92;;;9.77;;
68763;SDS011;55754;52.038;5.566;2022-12-18T08:13:24;20.45;;;9.68;;
68763;SDS011;55754;52.038;5.566;2022-12-18T08:15:57;21.85;;;9.60;;
68763;SDS011;55754;52.038;5.566;2022-12-18T08:18:31;22.53;;;10.27;;
68763;SDS011;55754;52.038;5.566;2022-12-18T08:20:57;20.90;;;9.70;;
68763;SDS011;55754;52.038;5.566;2022-12-18T08:23:31;20.98;;;9.18;;
68763;SDS011;55754;52.038;5.566;2022-12-18T08:26:00;19.05;;;9.07;;
68763;SDS011;55754;52.038;5.566;2022-12-18T08:28:26;22.23;;;9.30;;
68763;SDS011;55754;52.038;5.566;2022-12-18T08:30:51;17.08;;;8.18;;
68763;SDS011;55754;52.038;5.566;2022-12-18T08:33:17;18.67;;;8.48;;
68763;SDS011;55754;52.038;5.566;2022-12-18T08:35:43;19.20;;;8.27;;
68763;SDS011;55754;52.038;5.566;2022-12-18T08:38:08;17.80;;;8.55;;
68763;SDS011;55754;52.038;5.566;2022-12-18T08:40:34;18.27;;;8.60;;
68763;SDS011;55754;52.038;5.566;2022-12-18T08:42:59;17.10;;;8.00;;
68763;SDS011;55754;52.038;5.566;2022-12-18T08:45:43;19.13;;;8.60;;
68763;SDS011;55754;52.038;5.566;2022-12-18T08:48:09;19.57;;;8.50;;
68763;SDS011;55754;52.038;5.566;2022-12-18T08:50:37;17.85;;;8.48;;
68763;SDS011;55754;52.038;5.566;2022-12-18T08:53:03;22.98;;;8.90;;
68763;SDS011;55754;52.038;5.566;2022-12-18T08:55:29;19.90;;;8.77;;
68763;SDS011;55754;52.038;5.566;2022-12-18T08:57:54;19.83;;;8.27;;
68763;SDS011;55754;52.038;5.566;2022-12-18T09:00:20;19.13;;;8.25;;
68763;SDS011;55754;52.038;5.566;2022-12-18T09:02:45;17.60;;;8.30;;
68763;SDS011;55754;52.038;5.566;2022-12-18T09:05:12;19.55;;;8.63;;
68763;SDS011;55754;52.038;5.566;2022-12-18T09:07:37;17.60;;;8.13;;
68763;SDS011;55754;52.038;5.566;2022-12-18T09:10:03;17.45;;;7.90;;
68763;SDS011;55754;52.038;5.566;2022-12-18T09:12:29;18.88;;;8.18;;
68763;SDS011;55754;52.038;5.566;2022-12-18T09:14:55;16.10;;;7.60;;
68763;SDS011;55754;52.038;5.566;2022-12-18T09:17:21;16.05;;;7.07;;
68763;SDS011;55754;52.038;5.566;2022-12-18T09:19:47;16.23;;;7.40;;
68763;SDS011;55754;52.038;5.566;2022-12-18T09:22:12;16.45;;;7.70;;
68763;SDS011;55754;52.038;5.566;2022-12-18T09:24:38;17.23;;;7.40;;
68763;SDS011;55754;52.038;5.566;2022-12-18T09:27:03;15.80;;;7.03;;
68763;SDS011;55754;52.038;5.566;2022-12-18T09:29:29;14.68;;;6.90;;
68763;SDS011;55754;52.038;5.566;2022-12-18T09:31:55;16.37;;;7.13;;
68763;SDS011;55754;52.038;5.566;2022-12-18T09:34:20;16.17;;;6.77;;
68763;SDS011;55754;52.038;5.566;2022-12-18T09:36:46;19.73;;;7.07;;
68763;SDS011;55754;52.038;5.566;2022-12-18T09:39:13;19.90;;;8.40;;
68763;SDS011;55754;52.038;5.566;2022-12-18T09:49:43;18.40;;;7.60;;
68763;SDS011;55754;52.038;5.566;2022-12-18T09:52:17;16.80;;;7.75;;
68763;SDS011;55754;52.038;5.566;2022-12-18T09:54:53;16.37;;;6.63;;
68763;SDS011;55754;52.038;5.566;2022-12-18T09:57:29;14.98;;;7.53;;
68763;SDS011;55754;52.038;5.566;2022-12-18T10:00:03;14.15;;;6.85;;
68763;SDS011;55754;52.038;5.566;2022-12-18T10:02:40;16.35;;;6.70;;
68763;SDS011;55754;52.038;5.566;2022-12-18T10:05:06;14.57;;;7.13;;
68763;SDS011;55754;52.038;5.566;2022-12-18T10:08:22;15.65;;;7.30;;
68763;SDS011;55754;52.038;5.566;2022-12-18T10:10:38;14.98;;;6.78;;
68763;SDS011;55754;52.038;5.566;2022-12-18T10:13:19;16.77;;;6.93;;
68763;SDS011;55754;52.038;5.566;2022-12-18T10:16:09;15.50;;;6.90;;
68763;SDS011;55754;52.038;5.566;2022-12-18T10:24:52;16.45;;;7.28;;
68763;SDS011;55754;52.038;5.566;2022-12-18T10:27:29;17.58;;;7.60;;
68763;SDS011;55754;52.038;5.566;2022-12-18T10:29:55;16.87;;;6.63;;
68763;SDS011;55754;52.038;5.566;2022-12-18T10:32:25;16.40;;;7.03;;
68763;SDS011;55754;52.038;5.566;2022-12-18T10:34:54;17.02;;;6.97;;
68763;SDS011;55754;52.038;5.566;2022-12-18T10:37:23;18.17;;;7.13;;
68763;SDS011;55754;52.038;5.566;2022-12-18T10:42:38;16.30;;;7.60;;
68763;SDS011;55754;52.038;5.566;2022-12-18T10:47:35;19.20;;;8.65;;
68763;SDS011;55754;52.038;5.566;2022-12-18T10:50:01;16.05;;;6.65;;
68763;SDS011;55754;52.038;5.566;2022-12-18T10:52:28;15.90;;;7.33;;
68763;SDS011;55754;52.038;5.566;2022-12-18T10:55:01;14.65;;;7.38;;
68763;SDS011;55754;52.038;5.566;2022-12-18T10:57:35;15.93;;;7.40;;
68763;SDS011;55754;52.038;5.566;2022-12-18T11:02:55;12.85;;;6.22;;
68763;SDS011;55754;52.038;5.566;2022-12-18T11:07:49;15.60;;;6.90;;
68763;SDS011;55754;52.038;5.566;2022-12-18T11:10:18;17.77;;;7.45;;
68763;SDS011;55754;52.038;5.566;2022-12-18T11:12:46;15.32;;;6.45;;
68763;SDS011;55754;52.038;5.566;2022-12-18T11:15:19;15.15;;;7.40;;
68763;SDS011;55754;52.038;5.566;2022-12-18T11:17:47;17.08;;;7.68;;
68763;SDS011;55754;52.038;5.566;2022-12-18T11:23:00;17.70;;;7.18;;
68763;SDS011;55754;52.038;5.566;2022-12-18T11:25:28;16.55;;;6.78;;
68763;SDS011;55754;52.038;5.566;2022-12-18T11:27:55;18.70;;;6.55;;
68763;SDS011;55754;52.038;5.566;2022-12-18T11:30:25;16.67;;;7.22;;
68763;SDS011;55754;52.038;5.566;2022-12-18T11:32:52;15.70;;;7.00;;
68763;SDS011;55754;52.038;5.566;2022-12-18T11:35:47;16.52;;;6.72;;
68763;SDS011;55754;52.038;5.566;2022-12-18T11:41:35;15.75;;;6.85;;
68763;SDS011;55754;52.038;5.566;2022-12-18T11:43:47;17.15;;;7.80;;
68763;SDS011;55754;52.038;5.566;2022-12-18T11:46:36;15.80;;;7.33;;
68763;SDS011;55754;52.038;5.566;2022-12-18T11:52:15;15.80;;;7.65;;
68763;SDS011;55754;52.038;5.566;2022-12-18T11:54:50;15.25;;;6.95;;
68763;SDS011;55754;52.038;5.566;2022-12-18T11:57:34;14.27;;;7.40;;
68763;SDS011;55754;52.038;5.566;2022-12-18T12:08:31;16.63;;;7.50;;
68763;SDS011;55754;52.038;5.566;2022-12-18T12:14:12;18.83;;;7.57;;
68763;SDS011;55754;52.038;5.566;2022-12-18T12:19:33;16.67;;;8.07;;
68763;SDS011;55754;52.038;5.566;2022-12-18T12:27:46;20.87;;;7.67;;
68763;SDS011;55754;52.038;5.566;2022-12-18T12:30:35;17.73;;;7.85;;
68763;SDS011;55754;52.038;5.566;2022-12-18T12:33:38;15.85;;;7.30;;
68763;SDS011;55754;52.038;5.566;2022-12-18T12:36:33;15.90;;;7.35;;
68763;SDS011;55754;52.038;5.566;2022-12-18T12:39:17;16.42;;;8.13;;
68763;SDS011;55754;52.038;5.566;2022-12-18T12:41:47;16.13;;;7.57;;
68763;SDS011;55754;52.038;5.566;2022-12-18T12:45:09;16.55;;;7.38;;
68763;SDS011;55754;52.038;5.566;2022-12-18T12:47:30;18.63;;;8.48;;
68763;SDS011;55754;52.038;5.566;2022-12-18T12:50:02;20.98;;;8.05;;
68763;SDS011;55754;52.038;5.566;2022-12-18T12:54:58;17.80;;;7.83;;
68763;SDS011;55754;52.038;5.566;2022-12-18T13:02:30;20.42;;;8.23;;
68763;SDS011;55754;52.038;5.566;2022-12-18T13:05:03;17.73;;;8.15;;
68763;SDS011;55754;52.038;5.566;2022-12-18T13:07:54;17.07;;;8.23;;
68763;SDS011;55754;52.038;5.566;2022-12-18T13:10:31;21.17;;;8.07;;
68763;SDS011;55754;52.038;5.566;2022-12-18T13:13:05;23.27;;;9.50;;
68763;SDS011;55754;52.038;5.566;2022-12-18T13:15:39;19.13;;;8.60;;
68763;SDS011;55754;52.038;5.566;2022-12-18T13:18:21;18.13;;;8.38;;
68763;SDS011;55754;52.038;5.566;2022-12-18T13:25:55;19.47;;;8.83;;
68763;SDS011;55754;52.038;5.566;2022-12-18T13:38:42;18.70;;;8.77;;
68763;SDS011;55754;52.038;5.566;2022-12-18T13:41:23;19.05;;;8.98;;
68763;SDS011;55754;52.038;5.566;2022-12-18T13:43:54;26.35;;;9.65;;
68763;SDS011;55754;52.038;5.566;2022-12-18T13:46:30;18.75;;;8.68;;
68763;SDS011;55754;52.038;5.566;2022-12-18T13:51:39;20.03;;;9.50;;
68763;SDS011;55754;52.038;5.566;2022-12-18T13:56:53;18.42;;;9.20;;
68763;SDS011;55754;52.038;5.566;2022-12-18T13:59:22;19.93;;;9.40;;
68763;SDS011;55754;52.038;5.566;2022-12-18T14:01:58;18.73;;;8.43;;
68763;SDS011;55754;52.038;5.566;2022-12-18T14:04:34;19.02;;;8.80;;
68763;SDS011;55754;52.038;5.566;2022-12-18T14:09:45;18.30;;;8.55;;
68763;SDS011;55754;52.038;5.566;2022-12-18T14:12:16;18.47;;;7.97;;
68763;SDS011;55754;52.038;5.566;2022-12-18T14:17:58;18.20;;;8.60;;
68763;SDS011;55754;52.038;5.566;2022-12-18T14:20:33;18.88;;;8.20;;
68763;SDS011;55754;52.038;5.566;2022-12-18T14:22:59;19.52;;;9.68;;
68763;SDS011;55754;52.038;5.566;2022-12-18T14:25:26;16.57;;;8.00;;
68763;SDS011;55754;52.038;5.566;2022-12-18T14:30:39;20.20;;;9.05;;
68763;SDS011;55754;52.038;5.566;2022-12-18T14:33:13;20.58;;;9.52;;
68763;SDS011;55754;52.038;5.566;2022-12-18T14:35:42;17.33;;;8.37;;
68763;SDS011;55754;52.038;5.566;2022-12-18T14:38:21;22.88;;;8.77;;
68763;SDS011;55754;52.038;5.566;2022-12-18T14:41:03;20.40;;;8.73;;
68763;SDS011;55754;52.038;5.566;2022-12-18T14:43:37;19.10;;;9.25;;
68763;SDS011;55754;52.038;5.566;2022-12-18T14:48:57;18.10;;;8.90;;
68763;SDS011;55754;52.038;5.566;2022-12-18T14:51:48;20.30;;;9.30;;
68763;SDS011;55754;52.038;5.566;2022-12-18T14:54:18;23.15;;;9.23;;
68763;SDS011;55754;52.038;5.566;2022-12-18T14:56:48;19.95;;;9.38;;
68763;SDS011;55754;52.038;5.566;2022-12-18T14:59:18;21.13;;;9.95;;
68763;SDS011;55754;52.038;5.566;2022-12-18T15:02:15;22.90;;;9.37;;
68763;SDS011;55754;52.038;5.566;2022-12-18T15:04:45;20.65;;;8.98;;
68763;SDS011;55754;52.038;5.566;2022-12-18T15:07:16;19.48;;;9.48;;
68763;SDS011;55754;52.038;5.566;2022-12-18T15:09:43;20.60;;;8.85;;
68763;SDS011;55754;52.038;5.566;2022-12-18T15:12:28;23.13;;;10.45;;
68763;SDS011;55754;52.038;5.566;2022-12-18T15:14:59;19.80;;;9.13;;
68763;SDS011;55754;52.038;5.566;2022-12-18T15:17:25;20.85;;;9.43;;
68763;SDS011;55754;52.038;5.566;2022-12-18T15:19:57;20.27;;;9.57;;
68763;SDS011;55754;52.038;5.566;2022-12-18T15:22:26;20.13;;;9.68;;
68763;SDS011;55754;52.038;5.566;2022-12-18T15:24:54;20.90;;;10.02;;
68763;SDS011;55754;52.038;5.566;2022-12-18T15:27:23;22.00;;;9.50;;
68763;SDS011;55754;52.038;5.566;2022-12-18T15:32:38;21.38;;;9.63;;
68763;SDS011;55754;52.038;5.566;2022-12-18T15:37:38;23.63;;;10.23;;
68763;SDS011;55754;52.038;5.566;2022-12-18T15:40:04;22.27;;;10.57;;
68763;SDS011;55754;52.038;5.566;2022-12-18T15:42:30;22.95;;;11.25;;
68763;SDS011;55754;52.038;5.566;2022-12-18T15:45:17;25.85;;;11.02;;
68763;SDS011;55754;52.038;5.566;2022-12-18T15:47:43;23.63;;;11.20;;
68763;SDS011;55754;52.038;5.566;2022-12-18T15:50:08;24.38;;;10.85;;
68763;SDS011;55754;52.038;5.566;2022-12-18T15:52:41;20.13;;;9.93;;
68763;SDS011;55754;52.038;5.566;2022-12-18T15:55:12;24.13;;;10.90;;
68763;SDS011;55754;52.038;5.566;2022-12-18T15:57:58;21.55;;;10.50;;
68763;SDS011;55754;52.038;5.566;2022-12-18T16:00:24;20.67;;;10.27;;
68763;SDS011;55754;52.038;5.566;2022-12-18T16:02:50;20.52;;;10.07;;
68763;SDS011;55754;52.038;5.566;2022-12-18T16:05:16;22.77;;;10.43;;
68763;SDS011;55754;52.038;5.566;2022-12-18T16:07:43;21.73;;;9.63;;
68763;SDS011;55754;52.038;5.566;2022-12-18T16:10:09;26.80;;;11.32;;
68763;SDS011;55754;52.038;5.566;2022-12-18T16:12:35;23.48;;;10.32;;
68763;SDS011;55754;52.038;5.566;2022-12-18T16:15:01;23.50;;;10.90;;
68763;SDS011;55754;52.038;5.566;2022-12-18T16:17:27;23.27;;;10.50;;
68763;SDS011;55754;52.038;5.566;2022-12-18T16:19:53;21.92;;;10.27;;
68763;SDS011;55754;52.038;5.566;2022-12-18T16:22:20;23.77;;;10.17;;
68763;SDS011;55754;52.038;5.566;2022-12-18T16:24:47;21.50;;;9.90;;
68763;SDS011;55754;52.038;5.566;2022-12-18T16:27:14;21.05;;;10.57;;
68763;SDS011;55754;52.038;5.566;2022-12-18T16:29:39;21.57;;;10.17;;
68763;SDS011;55754;52.038;5.566;2022-12-18T16:32:05;24.40;;;10.07;;
68763;SDS011;55754;52.038;5.566;2022-12-18T16:34:31;23.30;;;11.02;;
68763;SDS011;55754;52.038;5.566;2022-12-18T16:36:59;21.40;;;11.10;;
68763;SDS011;55754;52.038;5.566;2022-12-18T16:39:27;22.73;;;9.90;;
68763;SDS011;55754;52.038;5.566;2022-12-18T16:41:53;27.15;;;10.77;;
68763;SDS011;55754;52.038;5.566;2022-12-18T16:44:18;24.30;;;11.27;;
68763;SDS011;55754;52.038;5.566;2022-12-18T16:46:45;16.90;;;8.20;;
68763;SDS011;55754;52.038;5.566;2022-12-18T16:49:11;23.95;;;11.27;;
68763;SDS011;55754;52.038;5.566;2022-12-18T16:51:41;23.33;;;10.02;;
68763;SDS011;55754;52.038;5.566;2022-12-18T16:54:06;24.20;;;11.05;;